| time (UTC) | temp F | wind direction | speed MPH | gust MPH | rain 1hr in | rain 24hr in | rain mn in | humidity % | barometer mb |
| 20260510120042 | 42 | 46 | 0.0 | 1.0 | 0.00 | 0.00 | 0.00 | 81 | 1002.9 |
| 20260510114541 | 42 | 37 | 0.0 | 0.0 | 0.00 | 0.00 | 0.00 | 81 | 1002.9 |
| 20260510113042 | 42 | 44 | 0.0 | 0.0 | 0.00 | 0.00 | 0.00 | 82 | 1002.8 |
| 20260510111536 | 42 | 42 | 0.0 | 0.0 | 0.00 | 0.00 | 0.00 | 82 | 1002.9 |
| 20260510110047 | 41 | 41 | 0.0 | 0.0 | 0.00 | 0.00 | 0.00 | 82 | 1003.0 |
| 20260510104534 | 41 | 46 | 0.0 | 0.0 | 0.00 | 0.00 | 0.00 | 82 | 1003.1 |
| 20260510103039 | 41 | 42 | 0.0 | 0.0 | 0.00 | 0.00 | 0.00 | 82 | 1003.3 |
| 20260510101532 | 41 | 43 | 0.0 | 0.0 | 0.00 | 0.00 | 0.00 | 83 | 1003.1 |
| 20260510100037 | 42 | 44 | 0.0 | 0.0 | 0.00 | 0.00 | 0.00 | 84 | 1003.2 |
| 20260510094537 | 42 | 47 | 0.0 | 0.0 | 0.00 | 0.00 | 0.00 | 84 | 1003.2 |
| 20260510093027 | 42 | 43 | 0.0 | 0.0 | 0.00 | 0.00 | 0.00 | 84 | 1003.3 |
| 20260510091526 | 43 | 44 | 0.0 | 0.0 | 0.00 | 0.00 | 0.00 | 84 | 1003.4 |
| 20260510090021 | 43 | 44 | 0.0 | 0.0 | 0.00 | 0.00 | 0.00 | 84 | 1003.5 |
| 20260510084519 | 44 | 44 | 0.0 | 0.0 | 0.00 | 0.00 | 0.00 | 84 | 1003.5 |
| 20260510083018 | 44 | 44 | 0.0 | 0.0 | 0.00 | 0.00 | 0.00 | 84 | 1003.6 |
| 20260510081524 | 44 | 40 | 0.0 | 0.0 | 0.00 | 0.00 | 0.00 | 84 | 1003.8 |
| 20260510080035 | 44 | 41 | 0.0 | 0.0 | 0.00 | 0.00 | 0.00 | 84 | 1003.6 |
| 20260510074514 | 43 | 43 | 0.0 | 1.0 | 0.00 | 0.00 | 0.00 | 84 | 1003.4 |
| 20260510073013 | 44 | 43 | 0.0 | 0.0 | 0.00 | 0.00 | 0.00 | 84 | 1003.6 |
| 20260510071510 | 44 | 41 | 0.0 | 0.0 | 0.00 | 0.00 | 0.00 | 84 | 1003.6 |
| 20260510070007 | 44 | 43 | 0.0 | 0.0 | 0.00 | 0.00 | 0.00 | 83 | 1003.6 |
| 20260510064510 | 44 | 42 | 0.0 | 3.0 | 0.00 | 0.00 | 0.00 | 83 | 1003.7 |
| 20260510063005 | 45 | 38 | 0.0 | 2.0 | 0.00 | 0.00 | 0.00 | 83 | 1003.8 |
| 20260510061506 | 45 | 37 | 1.0 | 2.0 | 0.00 | 0.00 | 0.00 | 82 | 1003.6 |
| 20260510060016 | 45 | 44 | 2.0 | 3.0 | 0.00 | 0.00 | 0.00 | 81 | 1003.6 |
| 20260510054508 | 46 | 44 | 2.0 | 3.0 | 0.00 | 0.00 | 0.00 | 80 | 1003.7 |
| 20260510053003 | 47 | 46 | 3.0 | 4.0 | 0.00 | 0.00 | 0.00 | 79 | 1003.7 |
| 20260510051503 | 47 | 50 | 4.0 | 4.0 | 0.00 | 0.00 | 0.00 | 79 | 1003.7 |
| 20260510050002 | 47 | 40 | 2.0 | 4.0 | 0.00 | 0.00 | 0.00 | 79 | 1003.8 |
| 20260510044503 | 47 | 46 | 3.0 | 4.0 | 0.00 | 0.00 | 0.00 | 79 | 1003.8 |
| 20260510043002 | 48 | 41 | 2.0 | 3.0 | 0.00 | 0.00 | 0.00 | 78 | 1003.9 |
| 20260510041501 | 49 | 34 | 2.0 | 2.0 | 0.00 | 0.00 | 0.00 | 78 | 1003.9 |
| 20260510040110 | 49 | 50 | 3.0 | 4.0 | 0.00 | 0.00 | 0.00 | 77 | 1003.8 |
| 20260510034600 | 50 | 36 | 2.0 | 3.0 | 0.00 | 0.00 | 0.00 | 77 | 1003.7 |
| 20260510033105 | 51 | 54 | 3.0 | 4.0 | 0.00 | 0.00 | 0.00 | 74 | 1003.4 |
| 20260510031604 | 53 | 46 | 0.0 | 0.0 | 0.00 | 0.00 | 0.00 | 71 | 1003.3 |
| 20260510024558 | 57 | 37 | 0.0 | 0.0 | 0.00 | 0.00 | 0.00 | 64 | 1003.2 |
| 20260510023057 | 59 | 37 | 0.0 | 0.0 | 0.00 | 0.00 | 0.00 | 60 | 1003.3 |
| 20260510021645 | 62 | 247 | 0.0 | 0.0 | 0.00 | 0.00 | 0.00 | 55 | 1003.2 |
| 20260510020100 | 64 | 248 | 0.0 | 0.0 | 0.00 | 0.00 | 0.00 | 48 | 1003.2 |
| 20260510014559 | 66 | 248 | 0.0 | 1.0 | 0.00 | 0.00 | 0.00 | 48 | 1003.3 |
| 20260510013102 | 67 | 246 | 0.0 | 3.0 | 0.00 | 0.00 | 0.00 | 39 | 1003.4 |
| 20260510011554 | 67 | 186 | 0.0 | 1.0 | 0.00 | 0.00 | 0.00 | 41 | 1003.5 |
| 20260510010058 | 68 | 207 | 0.0 | 4.0 | 0.00 | 0.00 | 0.00 | 41 | 1003.6 |
| 20260510004553 | 68 | 79 | 0.0 | 3.0 | 0.00 | 0.00 | 0.00 | 38 | 1003.6 |
| 20260510003053 | 68 | 179 | 2.0 | 6.0 | 0.00 | 0.00 | 0.00 | 40 | 1003.6 |
| 20260510001551 | 69 | 242 | 1.0 | 6.0 | 0.00 | 0.00 | 0.00 | 39 | 1003.7 |
| 20260510000051 | 69 | 205 | 1.0 | 6.0 | 0.00 | 0.00 | 0.00 | 39 | 1003.6 |
| 20260509234550 | 69 | 73 | 2.0 | 7.0 | 0.00 | 0.00 | 0.00 | 37 | 1003.6 |
| 20260509233050 | 70 | 238 | 0.0 | 8.0 | 0.00 | 0.00 | 0.00 | 37 | 1003.6 |
| 20260509231550 | 70 | 152 | 3.0 | 7.0 | 0.00 | 0.00 | 0.00 | 36 | 1003.7 |
| 20260509230050 | 71 | 292 | 2.0 | 6.0 | 0.00 | 0.00 | 0.00 | 35 | 1003.7 |
| 20260509224546 | 70 | 255 | 2.0 | 10.0 | 0.00 | 0.00 | 0.00 | 37 | 1003.8 |
| 20260509223048 | 71 | 246 | 1.0 | 8.0 | 0.00 | 0.00 | 0.00 | 36 | 1003.9 |
| 20260509221544 | 71 | 248 | 2.0 | 4.0 | 0.00 | 0.00 | 0.00 | 37 | 1004.1 |
| 20260509220041 | 70 | 211 | 1.0 | 3.0 | 0.00 | 0.00 | 0.00 | 37 | 1004.2 |
| 20260509214542 | 70 | 146 | 1.0 | 7.0 | 0.00 | 0.00 | 0.00 | 36 | 1004.4 |
| 20260509213041 | 70 | 168 | 3.0 | 6.0 | 0.00 | 0.00 | 0.00 | 38 | 1004.4 |
| 20260509211537 | 68 | 155 | 1.0 | 6.0 | 0.00 | 0.00 | 0.00 | 40 | 1004.7 |
| 20260509210040 | 68 | 231 | 5.0 | 8.0 | 0.00 | 0.00 | 0.00 | 40 | 1004.8 |
| 20260509204533 | 68 | 45 | 2.0 | 6.0 | 0.00 | 0.00 | 0.00 | 40 | 1004.8 |
| 20260509203029 | 67 | 274 | 0.0 | 4.0 | 0.00 | 0.00 | 0.00 | 42 | 1005.0 |
| 20260509201526 | 66 | 200 | 0.0 | 9.0 | 0.00 | 0.00 | 0.00 | 43 | 1005.1 |
| 20260509200023 | 65 | 269 | 2.0 | 7.0 | 0.00 | 0.00 | 0.00 | 43 | 1005.3 |
| 20260509194532 | 65 | 153 | 4.0 | 8.0 | 0.00 | 0.00 | 0.00 | 43 | 1005.4 |
| 20260509193023 | 65 | 166 | 2.0 | 6.0 | 0.00 | 0.00 | 0.00 | 44 | 1005.7 |
| 20260509191514 | 64 | 205 | 4.0 | 8.0 | 0.00 | 0.00 | 0.00 | 44 | 1005.8 |
| 20260509190013 | 63 | 180 | 1.0 | 8.0 | 0.00 | 0.00 | 0.00 | 44 | 1005.8 |
| 20260509184508 | 63 | 273 | 1.0 | 6.0 | 0.00 | 0.00 | 0.00 | 45 | 1005.9 |
| 20260509183012 | 61 | 169 | 2.0 | 9.0 | 0.00 | 0.00 | 0.00 | 47 | 1006.0 |
| 20260509181503 | 61 | 65 | 1.0 | 6.0 | 0.00 | 0.00 | 0.00 | 48 | 1005.9 |
| 20260509180002 | 60 | 147 | 1.0 | 6.0 | 0.00 | 0.00 | 0.00 | 50 | 1006.2 |
| 20260509174559 | 59 | 243 | 1.0 | 6.0 | 0.00 | 0.00 | 0.00 | 52 | 1006.0 |
| 20260509173106 | 58 | 141 | 1.0 | 6.0 | 0.00 | 0.00 | 0.00 | 51 | 1006.0 |
| 20260509171552 | 57 | 248 | 0.0 | 4.0 | 0.00 | 0.00 | 0.00 | 53 | 1006.0 |
| 20260509170051 | 56 | 170 | 1.0 | 6.0 | 0.00 | 0.00 | 0.00 | 53 | 1006.1 |
| 20260509164549 | 56 | 155 | 2.0 | 6.0 | 0.00 | 0.00 | 0.00 | 54 | 1006.2 |
| 20260509163046 | 55 | 255 | 1.0 | 4.0 | 0.00 | 0.00 | 0.00 | 55 | 1006.2 |
| 20260509161554 | 55 | 188 | 2.0 | 7.0 | 0.00 | 0.00 | 0.00 | 56 | 1006.1 |
| 20260509160042 | 54 | 32 | 0.0 | 1.0 | 0.00 | 0.00 | 0.00 | 57 | 1006.0 |
| 20260509154546 | 54 | 284 | 0.0 | 0.0 | 0.00 | 0.00 | 0.00 | 57 | 1006.1 |
| 20260509153052 | 52 | 242 | 0.0 | 0.0 | 0.00 | 0.00 | 0.00 | 63 | 1006.0 |
| 20260509151532 | 50 | 276 | 0.0 | 0.0 | 0.00 | 0.00 | 0.00 | 64 | 1005.9 |
| 20260509150031 | 48 | 243 | 0.0 | 0.0 | 0.00 | 0.00 | 0.00 | 69 | 1005.8 |
| 20260509144525 | 46 | 46 | 0.0 | 0.0 | 0.00 | 0.00 | 0.00 | 77 | 1005.9 |
| 20260509143025 | 45 | 46 | 0.0 | 0.0 | 0.00 | 0.00 | 0.00 | 80 | 1005.8 |
| 20260509141533 | 43 | 46 | 0.0 | 0.0 | 0.00 | 0.00 | 0.00 | 83 | 1005.6 |
| 20260509140020 | 41 | 46 | 0.0 | 0.0 | 0.00 | 0.00 | 0.00 | 85 | 1005.4 |
| 20260509134518 | 40 | 46 | 0.0 | 0.0 | 0.00 | 0.00 | 0.00 | 85 | 1005.2 |
| 20260509133016 | 38 | 46 | 0.0 | 0.0 | 0.00 | 0.00 | 0.00 | 85 | 1004.9 |
| 20260509131512 | 38 | 41 | 0.0 | 0.0 | 0.00 | 0.00 | 0.00 | 84 | 1004.7 |
| 20260509130012 | 37 | 46 | 0.0 | 0.0 | 0.00 | 0.00 | 0.00 | 85 | 1004.4 |
| 20260509124506 | 39 | 44 | 0.0 | 0.0 | 0.00 | 0.00 | 0.00 | 84 | 1004.1 |
| 20260509123004 | 39 | 44 | 0.0 | 0.0 | 0.00 | 0.00 | 0.00 | 85 | 1003.9 |
| 20260509121501 | 39 | 37 | 0.0 | 0.0 | 0.00 | 0.00 | 0.00 | 84 | 1003.7 |